Time;durP1;ratioP1;P1;durP2;ratioP2;P2;SDS_P1;SDS_P2;PMS_P1;PMS_P2;Temp;Humidity;BMP_temperature;BMP_pressure;BME280_temperature;BME280_humidity;BME280_pressure;Samples;Min_cycle;Max_cycle;Signal;HPM_P1;HPM_P2
2024/04/04 00:00:00;;;;;;;2.13;1.33;;;;;;;;;;6213089;23;20699;-49
2024/04/04 00:02:28;;;;;;;1.88;1.23;;;;;;;;;;6212544;23;20200;-52
2024/04/04 00:05:00;;;;;;;1.45;1.20;;;;;;;;;;6213140;23;20811;-52
2024/04/04 00:07:28;;;;;;;1.52;1.42;;;;;;;;;;6212671;23;20176;-52
2024/04/04 00:09:55;;;;;;;1.45;1.35;;;;;;;;;;6212788;23;20178;-51
2024/04/04 00:12:22;;;;;;;0.95;0.95;;;;;;;;;;6212695;23;20532;-51
2024/04/04 00:14:50;;;;;;;0.93;0.90;;;;;;;;;;6212812;23;20514;-52
2024/04/04 00:17:18;;;;;;;1.13;1.02;;;;;;;;;;6212420;23;20232;-52
2024/04/04 00:19:45;;;;;;;1.70;0.95;;;;;;;;;;6212570;23;20182;-50
2024/04/04 00:22:12;;;;;;;0.90;0.90;;;;;;;;;;6213847;23;20678;-49
2024/04/04 00:24:38;;;;;;;1.05;0.95;;;;;;;;;;6214950;23;20174;-51
2024/04/04 00:27:07;;;;;;;2.38;1.10;;;;;;;;;;6214601;23;20567;-53
2024/04/04 00:29:33;;;;;;;0.95;0.88;;;;;;;;;;6214850;23;20184;-50
2024/04/04 00:32:03;;;;;;;0.77;0.77;;;;;;;;;;6213939;23;20193;-49
2024/04/04 00:34:29;;;;;;;1.15;0.95;;;;;;;;;;6214467;23;20232;-51
2024/04/04 00:36:57;;;;;;;1.13;1.00;;;;;;;;;;6214626;23;20177;-50
2024/04/04 00:39:23;;;;;;;1.08;0.88;;;;;;;;;;6214690;23;20188;-51
2024/04/04 00:41:51;;;;;;;0.82;0.82;;;;;;;;;;6214082;23;20301;-52
2024/04/04 00:44:18;;;;;;;1.30;1.05;;;;;;;;;;6214584;23;20173;-49
2024/04/04 00:46:45;;;;;;;0.82;0.82;;;;;;;;;;6214728;23;20174;-51
2024/04/04 00:49:13;;;;;;;0.70;0.70;;;;;;;;;;6214777;23;20180;-54
2024/04/04 00:51:40;;;;;;;1.60;0.80;;;;;;;;;;6214378;23;20198;-52
2024/04/04 00:54:07;;;;;;;0.63;0.63;;;;;;;;;;6214796;23;20180;-50
2024/04/04 00:56:35;;;;;;;0.80;0.70;;;;;;;;;;6214022;23;20178;-54
2024/04/04 00:59:02;;;;;;;0.77;0.77;;;;;;;;;;6214970;23;20198;-50
2024/04/04 01:01:29;;;;;;;0.77;0.77;;;;;;;;;;6213895;23;20666;-52
2024/04/04 01:03:55;;;;;;;0.77;0.75;;;;;;;;;;6213924;23;20177;-49
2024/04/04 01:06:32;;;;;;;0.85;0.85;;;;;;;;;;6214015;23;20174;-52
2024/04/04 01:09:00;;;;;;;1.33;1.23;;;;;;;;;;6214668;23;20173;-50
2024/04/04 01:11:28;;;;;;;2.72;0.85;;;;;;;;;;6214850;23;20678;-49
2024/04/04 01:13:54;;;;;;;0.77;0.73;;;;;;;;;;6214431;23;20182;-52
2024/04/04 01:16:22;;;;;;;8.88;1.13;;;;;;;;;;6214601;23;20174;-52
2024/04/04 01:18:48;;;;;;;0.73;0.70;;;;;;;;;;6214667;23;20600;-51
2024/04/04 01:21:18;;;;;;;0.90;0.70;;;;;;;;;;6213972;23;20693;-50
2024/04/04 01:23:45;;;;;;;1.30;0.77;;;;;;;;;;6214623;23;20264;-51
2024/04/04 01:26:14;;;;;;;0.80;0.80;;;;;;;;;;6213662;23;20257;-50
2024/04/04 01:28:41;;;;;;;0.75;0.70;;;;;;;;;;6214863;23;20177;-54
2024/04/04 01:31:08;;;;;;;1.08;0.98;;;;;;;;;;6214245;23;20212;-49
2024/04/04 01:33:34;;;;;;;0.98;0.75;;;;;;;;;;6213981;23;20499;-50
2024/04/04 01:36:02;;;;;;;0.63;0.63;;;;;;;;;;6214429;23;20178;-49
2024/04/04 01:38:28;;;;;;;1.92;0.77;;;;;;;;;;6213751;23;20198;-50
2024/04/04 01:41:01;;;;;;;2.75;1.05;;;;;;;;;;6213821;23;20674;-49
2024/04/04 01:43:27;;;;;;;0.88;0.80;;;;;;;;;;6214153;23;20197;-55
2024/04/04 01:45:55;;;;;;;0.80;0.80;;;;;;;;;;6214349;23;20520;-52
2024/04/04 01:48:21;;;;;;;0.73;0.68;;;;;;;;;;6214539;23;20177;-51
2024/04/04 01:50:49;;;;;;;0.75;0.75;;;;;;;;;;6214630;23;20193;-53
2024/04/04 01:53:15;;;;;;;0.88;0.85;;;;;;;;;;6214628;23;20273;-50
2024/04/04 01:55:43;;;;;;;0.70;0.70;;;;;;;;;;6214596;23;20181;-50
2024/04/04 01:58:10;;;;;;;2.17;0.82;;;;;;;;;;6213663;23;20198;-50
2024/04/04 02:00:38;;;;;;;1.27;0.85;;;;;;;;;;6213813;23;20181;-53
2024/04/04 02:03:05;;;;;;;0.73;0.60;;;;;;;;;;6214234;23;20180;-55
2024/04/04 02:05:33;;;;;;;1.98;0.90;;;;;;;;;;6214238;23;20209;-54
2024/04/04 02:07:59;;;;;;;0.95;0.55;;;;;;;;;;6213925;23;20173;-54
2024/04/04 02:10:27;;;;;;;0.60;0.60;;;;;;;;;;6213332;23;20179;-54
2024/04/04 02:12:53;;;;;;;2.00;0.93;;;;;;;;;;6213511;23;20173;-55
2024/04/04 02:15:22;;;;;;;0.52;0.52;;;;;;;;;;6213423;23;20174;-55
2024/04/04 02:17:49;;;;;;;0.77;0.63;;;;;;;;;;6214000;23;20186;-50
2024/04/04 02:20:16;;;;;;;0.70;0.70;;;;;;;;;;6213675;23;20511;-50
2024/04/04 02:22:43;;;;;;;0.60;0.60;;;;;;;;;;6213833;23;20190;-52
2024/04/04 02:25:10;;;;;;;0.95;0.75;;;;;;;;;;6213666;23;20512;-54
2024/04/04 02:27:37;;;;;;;1.73;0.75;;;;;;;;;;6213587;23;20173;-54
2024/04/04 02:30:05;;;;;;;1.95;0.68;;;;;;;;;;6213311;23;20253;-50
2024/04/04 02:32:33;;;;;;;0.60;0.60;;;;;;;;;;6213733;23;20225;-50
2024/04/04 02:35:01;;;;;;;0.85;0.70;;;;;;;;;;6213672;23;20646;-51
2024/04/04 02:37:27;;;;;;;0.50;0.50;;;;;;;;;;6214424;23;20252;-51
2024/04/04 02:39:55;;;;;;;0.60;0.60;;;;;;;;;;6213499;23;20585;-53
2024/04/04 02:42:22;;;;;;;1.92;0.90;;;;;;;;;;6213529;23;20194;-50
2024/04/04 02:44:49;;;;;;;0.88;0.77;;;;;;;;;;6213271;23;20203;-53
2024/04/04 02:47:16;;;;;;;0.50;0.50;;;;;;;;;;6213199;23;20192;-50
2024/04/04 02:49:44;;;;;;;0.70;0.70;;;;;;;;;;6213591;23;20178;-50
2024/04/04 02:52:11;;;;;;;0.57;0.57;;;;;;;;;;6213393;23;20726;-51
2024/04/04 02:54:38;;;;;;;0.90;0.82;;;;;;;;;;6213426;23;20196;-49
2024/04/04 02:57:06;;;;;;;0.60;0.57;;;;;;;;;;6213410;23;20679;-49
2024/04/04 02:59:32;;;;;;;3.00;0.85;;;;;;;;;;6213438;23;20527;-49
2024/04/04 03:02:00;;;;;;;0.60;0.60;;;;;;;;;;6212605;23;20194;-49
2024/04/04 03:04:26;;;;;;;1.75;0.70;;;;;;;;;;6212857;23;20252;-51
2024/04/04 03:06:55;;;;;;;1.33;1.23;;;;;;;;;;6213344;23;20181;-49
2024/04/04 03:09:23;;;;;;;0.70;0.70;;;;;;;;;;6214163;23;20221;-49
2024/04/04 03:11:50;;;;;;;0.55;0.50;;;;;;;;;;6213342;23;20716;-50
2024/04/04 03:14:16;;;;;;;0.85;0.85;;;;;;;;;;6213035;23;20182;-50
2024/04/04 03:16:44;;;;;;;1.15;0.80;;;;;;;;;;6212849;23;20180;-50
2024/04/04 03:19:11;;;;;;;1.38;0.85;;;;;;;;;;6213152;23;20200;-54
2024/04/04 03:21:38;;;;;;;0.50;0.50;;;;;;;;;;6211048;23;20197;-54
2024/04/04 03:24:06;;;;;;;0.73;0.65;;;;;;;;;;6212633;23;20200;-51
2024/04/04 03:26:34;;;;;;;0.80;0.80;;;;;;;;;;6213202;23;20576;-49
2024/04/04 03:29:01;;;;;;;1.48;1.08;;;;;;;;;;6212966;23;20252;-49
2024/04/04 03:31:28;;;;;;;0.85;0.85;;;;;;;;;;6212640;23;20272;-51
2024/04/04 03:33:55;;;;;;;0.65;0.52;;;;;;;;;;6212811;23;20184;-50
2024/04/04 03:36:22;;;;;;;1.10;0.70;;;;;;;;;;6212756;23;20557;-49
2024/04/04 03:38:50;;;;;;;1.45;0.60;;;;;;;;;;6212984;23;20193;-50
2024/04/04 03:41:20;;;;;;;1.13;0.90;;;;;;;;;;6213300;23;20205;-49
2024/04/04 03:43:46;;;;;;;1.98;1.02;;;;;;;;;;6212849;23;20181;-48
2024/04/04 03:46:14;;;;;;;0.50;0.50;;;;;;;;;;6212558;23;20249;-50
2024/04/04 03:48:41;;;;;;;1.23;0.70;;;;;;;;;;6212696;23;20205;-49
2024/04/04 03:51:08;;;;;;;0.90;0.90;;;;;;;;;;6212944;23;20277;-52
2024/04/04 03:53:35;;;;;;;1.20;0.80;;;;;;;;;;6212517;23;20170;-51
2024/04/04 03:56:03;;;;;;;1.30;1.08;;;;;;;;;;6213267;23;20180;-51
2024/04/04 03:58:31;;;;;;;1.95;1.48;;;;;;;;;;6214764;23;20183;-50
2024/04/04 04:00:58;;;;;;;1.75;0.60;;;;;;;;;;6214764;23;20205;-49
2024/04/04 04:03:26;;;;;;;0.52;0.52;;;;;;;;;;6214659;23;20533;-50
2024/04/04 04:05:53;;;;;;;0.70;0.70;;;;;;;;;;6214694;23;20505;-49
2024/04/04 04:08:20;;;;;;;0.60;0.60;;;;;;;;;;6215293;23;20331;-52
2024/04/04 04:10:48;;;;;;;1.05;1.02;;;;;;;;;;6214460;23;20247;-50
2024/04/04 04:13:14;;;;;;;1.83;0.80;;;;;;;;;;6214445;23;20193;-52
2024/04/04 04:15:43;;;;;;;0.82;0.82;;;;;;;;;;6214462;23;20178;-50
2024/04/04 04:18:10;;;;;;;1.00;0.75;;;;;;;;;;6214672;23;20264;-50
2024/04/04 04:23:22;;;;;;;0.90;0.90;;;;;;;;;;6213609;23;20248;-50
2024/04/04 04:25:49;;;;;;;0.88;0.80;;;;;;;;;;6215057;23;20645;-49
2024/04/04 04:28:16;;;;;;;0.85;0.73;;;;;;;;;;6214752;23;20181;-54
2024/04/04 04:30:44;;;;;;;1.20;0.90;;;;;;;;;;6214866;23;20710;-50
2024/04/04 04:33:11;;;;;;;1.23;0.90;;;;;;;;;;6213850;23;20186;-50
2024/04/04 04:35:38;;;;;;;0.85;0.68;;;;;;;;;;6214408;23;20666;-53
2024/04/04 04:38:05;;;;;;;0.80;0.80;;;;;;;;;;6214521;23;20195;-52
2024/04/04 04:40:32;;;;;;;0.80;0.80;;;;;;;;;;6213969;23;20523;-50
2024/04/04 04:42:59;;;;;;;1.50;0.90;;;;;;;;;;6213932;23;20264;-51
2024/04/04 04:45:26;;;;;;;1.92;1.83;;;;;;;;;;6214454;23;20178;-49
2024/04/04 04:47:55;;;;;;;1.08;0.90;;;;;;;;;;6213864;23;20185;-50
2024/04/04 04:50:21;;;;;;;1.05;0.77;;;;;;;;;;6214612;23;20611;-53
2024/04/04 04:52:49;;;;;;;1.02;0.98;;;;;;;;;;6213848;23;20174;-49
2024/04/04 04:55:15;;;;;;;3.00;1.05;;;;;;;;;;6214662;23;20511;-50
2024/04/04 04:57:43;;;;;;;1.05;0.90;;;;;;;;;;6214297;23;20182;-49
2024/04/04 05:00:12;;;;;;;1.40;1.23;;;;;;;;;;6214794;23;20708;-50
2024/04/04 05:02:39;;;;;;;0.73;0.73;;;;;;;;;;6214230;23;20237;-52
2024/04/04 05:05:15;;;;;;;0.88;0.88;;;;;;;;;;6214514;23;20644;-50
2024/04/04 05:07:43;;;;;;;1.00;1.00;;;;;;;;;;6214718;23;20216;-53
2024/04/04 05:10:09;;;;;;;1.08;1.00;;;;;;;;;;6214871;23;20173;-51
2024/04/04 05:12:37;;;;;;;1.55;1.00;;;;;;;;;;6213459;23;20252;-53
2024/04/04 05:15:05;;;;;;;1.23;1.13;;;;;;;;;;6214396;23;20181;-51
2024/04/04 05:17:33;;;;;;;0.63;0.63;;;;;;;;;;6214167;23;20182;-51
2024/04/04 05:19:59;;;;;;;0.80;0.75;;;;;;;;;;6214023;23;20224;-51
2024/04/04 05:22:29;;;;;;;1.10;1.00;;;;;;;;;;6213491;23;20198;-50
2024/04/04 05:24:56;;;;;;;0.80;0.80;;;;;;;;;;6214737;23;20554;-52
2024/04/04 05:27:23;;;;;;;2.25;1.35;;;;;;;;;;6214293;23;20196;-53
2024/04/04 05:29:53;;;;;;;0.60;0.60;;;;;;;;;;6214444;23;20559;-52
2024/04/04 05:32:20;;;;;;;2.35;1.02;;;;;;;;;;6214114;23;20666;-54
2024/04/04 05:34:48;;;;;;;2.30;1.20;;;;;;;;;;6213765;23;20174;-50
2024/04/04 05:37:15;;;;;;;0.73;0.73;;;;;;;;;;6214212;23;20686;-51
2024/04/04 05:39:43;;;;;;;2.15;1.00;;;;;;;;;;6213705;23;20229;-49
2024/04/04 05:42:11;;;;;;;0.90;0.90;;;;;;;;;;6213611;23;20547;-49
2024/04/04 05:44:37;;;;;;;1.35;1.27;;;;;;;;;;6213347;23;20181;-52
2024/04/04 05:47:05;;;;;;;1.08;0.98;;;;;;;;;;6213710;23;20276;-51
2024/04/04 05:49:32;;;;;;;0.75;0.75;;;;;;;;;;6214469;23;20508;-52
2024/04/04 05:51:59;;;;;;;1.10;1.00;;;;;;;;;;6213204;23;20197;-51
2024/04/04 05:54:26;;;;;;;1.30;1.00;;;;;;;;;;6213777;23;20216;-52
2024/04/04 05:56:55;;;;;;;1.58;0.93;;;;;;;;;;6214236;23;20252;-51
2024/04/04 05:59:22;;;;;;;1.20;1.10;;;;;;;;;;6213736;23;20174;-51
2024/04/04 06:01:49;;;;;;;1.30;0.98;;;;;;;;;;6213370;23;20209;-55
2024/04/04 06:04:16;;;;;;;3.08;2.15;;;;;;;;;;6213937;23;20181;-49
2024/04/04 06:06:44;;;;;;;1.27;0.80;;;;;;;;;;6213681;23;20197;-50
2024/04/04 06:09:11;;;;;;;0.93;0.90;;;;;;;;;;6214135;23;20180;-49
2024/04/04 06:11:40;;;;;;;1.20;0.80;;;;;;;;;;6213346;23;20212;-53
2024/04/04 06:14:08;;;;;;;3.22;1.33;;;;;;;;;;6213651;23;20264;-53
2024/04/04 06:16:36;;;;;;;1.33;1.10;;;;;;;;;;6213603;23;20256;-50
2024/04/04 06:19:03;;;;;;;1.05;0.95;;;;;;;;;;6213359;23;20177;-52
2024/04/04 06:21:30;;;;;;;3.65;1.15;;;;;;;;;;6213766;23;20204;-51
2024/04/04 06:23:57;;;;;;;1.05;1.05;;;;;;;;;;6212925;23;20182;-50
2024/04/04 06:26:26;;;;;;;1.08;1.08;;;;;;;;;;6213424;23;20195;-50
2024/04/04 06:28:53;;;;;;;0.93;0.93;;;;;;;;;;6214354;23;20567;-55
2024/04/04 06:31:21;;;;;;;1.50;1.27;;;;;;;;;;6213936;23;20217;-53
2024/04/04 06:33:48;;;;;;;1.42;1.33;;;;;;;;;;6213489;23;20174;-50
2024/04/04 06:36:16;;;;;;;1.88;1.42;;;;;;;;;;6213146;23;20201;-51
2024/04/04 06:38:43;;;;;;;1.45;1.35;;;;;;;;;;6214203;23;20178;-51
2024/04/04 06:41:11;;;;;;;1.08;1.08;;;;;;;;;;6213732;23;20197;-51
2024/04/04 06:43:38;;;;;;;1.83;1.48;;;;;;;;;;6213986;23;20232;-50
2024/04/04 06:46:05;;;;;;;1.60;1.50;;;;;;;;;;6213489;23;20185;-52
2024/04/04 06:48:40;;;;;;;1.98;1.35;;;;;;;;;;6214111;23;20247;-51
2024/04/04 06:51:16;;;;;;;2.50;1.73;;;;;;;;;;5101331;27;20641;-48
2024/04/04 06:53:42;;;;;;;1.92;1.70;;;;;;;;;;5098716;28;20607;-51
2024/04/04 06:56:10;;;;;;;1.55;1.45;;;;;;;;;;5098651;28;20204;-51
2024/04/04 06:58:37;;;;;;;1.88;1.77;;;;;;;;;;5100601;28;20234;-51
2024/04/04 07:01:04;;;;;;;1.38;1.27;;;;;;;;;;5091657;28;20224;-51
2024/04/04 07:03:31;;;;;;;1.58;1.48;;;;;;;;;;5101585;28;20204;-53
2024/04/04 07:05:58;;;;;;;1.73;1.58;;;;;;;;;;5096698;28;20724;-51
2024/04/04 07:08:27;;;;;;;3.45;1.80;;;;;;;;;;5092090;28;20201;-51
2024/04/04 07:10:59;;;;;;;1.90;1.52;;;;;;;;;;5098236;28;20221;-53
2024/04/04 07:13:27;;;;;;;3.10;2.00;;;;;;;;;;5089983;28;20706;-49
2024/04/04 07:16:01;;;;;;;1.33;1.23;;;;;;;;;;5098797;28;20308;-51
2024/04/04 07:18:30;;;;;;;1.40;1.40;;;;;;;;;;5093094;28;20203;-52
2024/04/04 07:20:59;;;;;;;1.42;1.33;;;;;;;;;;5090202;28;20220;-52
2024/04/04 07:23:28;;;;;;;1.33;1.23;;;;;;;;;;5102506;28;20204;-50
2024/04/04 07:25:56;;;;;;;4.53;1.67;;;;;;;;;;5106641;28;20202;-51
2024/04/04 07:28:24;;;;;;;1.88;1.60;;;;;;;;;;5096210;28;20208;-50
2024/04/04 07:30:51;;;;;;;1.65;1.50;;;;;;;;;;5088166;28;20275;-51
2024/04/04 07:33:18;;;;;;;1.23;1.13;;;;;;;;;;5102319;28;20686;-51
2024/04/04 07:35:46;;;;;;;1.58;1.48;;;;;;;;;;5089389;28;20681;-52
2024/04/04 07:38:14;;;;;;;1.70;1.60;;;;;;;;;;5088383;28;20287;-53
2024/04/04 07:40:42;;;;;;;1.40;1.30;;;;;;;;;;5087751;28;20216;-51
2024/04/04 07:43:11;;;;;;;1.75;1.65;;;;;;;;;;5099863;28;20200;-54
2024/04/04 07:45:39;;;;;;;2.15;1.60;;;;;;;;;;5098421;28;20262;-53
2024/04/04 07:48:09;;;;;;;1.48;1.20;;;;;;;;;;5092895;28;20642;-53
2024/04/04 07:50:35;;;;;;;1.60;1.40;;;;;;;;;;5100549;28;20717;-51
2024/04/04 07:53:03;;;;;;;1.17;1.17;;;;;;;;;;5092084;28;20208;-50
2024/04/04 07:55:30;;;;;;;2.00;1.77;;;;;;;;;;5087339;28;20258;-52
2024/04/04 07:57:59;;;;;;;1.67;1.58;;;;;;;;;;5089193;28;20335;-50
2024/04/04 08:00:25;;;;;;;1.52;1.42;;;;;;;;;;5092748;28;20200;-50
2024/04/04 08:02:53;;;;;;;1.35;1.23;;;;;;;;;;5077489;28;20205;-50
2024/04/04 08:05:20;;;;;;;3.35;1.50;;;;;;;;;;5085880;28;20196;-51
2024/04/04 08:07:48;;;;;;;3.22;1.60;;;;;;;;;;5083994;28;20208;-52
2024/04/04 08:10:15;;;;;;;2.22;1.35;;;;;;;;;;5074448;28;20707;-50
2024/04/04 08:12:43;;;;;;;1.55;1.45;;;;;;;;;;5073640;28;20225;-54
2024/04/04 08:15:12;;;;;;;1.73;1.52;;;;;;;;;;5073825;28;20209;-55
2024/04/04 08:17:41;;;;;;;2.10;2.00;;;;;;;;;;5079962;28;20290;-53
2024/04/04 08:20:09;;;;;;;1.40;1.30;;;;;;;;;;5067395;28;20192;-51
2024/04/04 08:22:37;;;;;;;2.58;1.50;;;;;;;;;;5082736;28;20227;-55
2024/04/04 08:25:04;;;;;;;1.65;1.20;;;;;;;;;;5083131;28;20342;-52
2024/04/04 08:27:32;;;;;;;1.48;1.38;;;;;;;;;;5088790;28;20209;-53
2024/04/04 08:29:58;;;;;;;2.65;1.48;;;;;;;;;;5074943;28;20607;-54
2024/04/04 08:32:28;;;;;;;1.35;1.13;;;;;;;;;;5073550;28;20589;-53
2024/04/04 08:34:54;;;;;;;1.17;1.08;;;;;;;;;;5083521;28;20208;-51
2024/04/04 08:37:22;;;;;;;2.08;1.30;;;;;;;;;;5093186;28;20729;-52
2024/04/04 08:39:48;;;;;;;2.45;1.40;;;;;;;;;;5086598;28;20207;-50
2024/04/04 08:42:15;;;;;;;1.20;1.10;;;;;;;;;;5077960;28;20220;-54
2024/04/04 08:44:42;;;;;;;1.50;1.00;;;;;;;;;;5086710;28;20211;-53
2024/04/04 08:47:12;;;;;;;1.95;1.30;;;;;;;;;;5077793;28;20298;-54
2024/04/04 08:49:40;;;;;;;1.55;1.17;;;;;;;;;;5080648;28;20214;-54
2024/04/04 08:52:08;;;;;;;1.67;1.48;;;;;;;;;;5075948;28;20248;-54
2024/04/04 08:54:36;;;;;;;3.33;2.40;;;;;;;;;;5082504;28;20201;-53
2024/04/04 08:57:05;;;;;;;2.15;1.73;;;;;;;;;;5084011;28;20287;-54
2024/04/04 08:59:32;;;;;;;1.30;1.20;;;;;;;;;;5078473;28;20239;-53
2024/04/04 09:01:59;;;;;;;1.30;1.13;;;;;;;;;;5075874;28;20646;-53
2024/04/04 09:04:26;;;;;;;2.30;1.55;;;;;;;;;;5083187;28;20291;-52
2024/04/04 09:06:55;;;;;;;1.15;1.00;;;;;;;;;;5082612;28;20616;-54
2024/04/04 09:09:23;;;;;;;1.92;1.10;;;;;;;;;;5081175;28;20571;-50
2024/04/04 09:11:50;;;;;;;1.20;1.10;;;;;;;;;;5089145;28;20252;-50
2024/04/04 09:14:18;;;;;;;1.27;1.00;;;;;;;;;;5074113;28;20657;-54
2024/04/04 09:16:46;;;;;;;1.30;1.10;;;;;;;;;;5084488;28;20204;-50
2024/04/04 09:19:15;;;;;;;1.23;1.10;;;;;;;;;;5088736;28;20667;-54
2024/04/04 09:21:44;;;;;;;1.15;0.98;;;;;;;;;;5080811;28;20216;-55
2024/04/04 09:24:14;;;;;;;1.08;1.00;;;;;;;;;;5085955;28;20705;-53
2024/04/04 09:26:43;;;;;;;1.08;0.90;;;;;;;;;;5084607;28;20204;-54
2024/04/04 09:29:11;;;;;;;0.93;0.93;;;;;;;;;;5081243;28;20207;-54
2024/04/04 09:31:40;;;;;;;1.88;1.00;;;;;;;;;;5083794;28;20311;-52
2024/04/04 09:34:10;;;;;;;2.20;1.20;;;;;;;;;;5083972;28;20203;-53
2024/04/04 09:36:39;;;;;;;1.25;0.90;;;;;;;;;;5085350;28;20703;-54
2024/04/04 09:39:09;;;;;;;1.27;1.00;;;;;;;;;;5090225;28;20610;-53
2024/04/04 09:41:38;;;;;;;1.35;0.98;;;;;;;;;;5078331;28;20747;-52
2024/04/04 09:44:06;;;;;;;0.85;0.80;;;;;;;;;;5088121;28;20196;-54
2024/04/04 09:46:37;;;;;;;2.08;1.00;;;;;;;;;;5080014;28;20668;-50
2024/04/04 09:49:06;;;;;;;0.90;0.90;;;;;;;;;;5071006;28;20223;-51
2024/04/04 09:51:33;;;;;;;1.42;1.10;;;;;;;;;;5080097;28;20710;-54
2024/04/04 09:54:01;;;;;;;1.13;1.02;;;;;;;;;;5072098;28;20664;-50
2024/04/04 09:56:28;;;;;;;0.60;0.60;;;;;;;;;;5084304;28;20216;-51
2024/04/04 09:58:57;;;;;;;0.75;0.75;;;;;;;;;;5089791;28;20230;-50
2024/04/04 10:01:25;;;;;;;0.70;0.70;;;;;;;;;;5091720;28;20220;-52
2024/04/04 10:03:58;;;;;;;1.40;1.00;;;;;;;;;;5092018;28;20710;-55
2024/04/04 10:06:33;;;;;;;0.70;0.70;;;;;;;;;;5075539;28;20197;-54
2024/04/04 10:09:01;;;;;;;0.93;0.60;;;;;;;;;;5086597;28;20214;-51
2024/04/04 10:11:29;;;;;;;1.08;0.85;;;;;;;;;;5070910;28;20244;-52
2024/04/04 10:14:01;;;;;;;0.68;0.68;;;;;;;;;;5072700;28;20204;-52
2024/04/04 10:16:33;;;;;;;0.63;0.63;;;;;;;;;;5071840;28;20204;-52
2024/04/04 10:19:10;;;;;;;1.02;0.70;;;;;;;;;;5081428;28;20262;-54
2024/04/04 10:21:37;;;;;;;0.68;0.68;;;;;;;;;;5081807;28;20828;-53
2024/04/04 10:24:05;;;;;;;0.63;0.63;;;;;;;;;;5073190;28;20210;-54
2024/04/04 10:26:32;;;;;;;1.27;0.75;;;;;;;;;;5089813;28;20200;-50
2024/04/04 10:29:03;;;;;;;2.30;0.80;;;;;;;;;;5080792;28;20283;-54
2024/04/04 10:31:30;;;;;;;0.60;0.60;;;;;;;;;;5074588;28;20312;-54
2024/04/04 10:34:09;;;;;;;0.95;0.57;;;;;;;;;;5072138;28;20197;-55
2024/04/04 10:36:41;;;;;;;0.55;0.55;;;;;;;;;;5087000;28;20192;-52
2024/04/04 10:39:12;;;;;;;0.57;0.50;;;;;;;;;;5074911;28;20647;-53
2024/04/04 10:41:40;;;;;;;0.95;0.40;;;;;;;;;;5076852;28;20217;-55
2024/04/04 10:44:14;;;;;;;0.85;0.50;;;;;;;;;;5079510;28;20197;-53
2024/04/04 10:46:47;;;;;;;1.45;0.50;;;;;;;;;;5077301;28;20200;-56
2024/04/04 10:49:16;;;;;;;1.23;0.80;;;;;;;;;;5087040;28;20245;-53
2024/04/04 10:51:48;;;;;;;0.90;0.75;;;;;;;;;;5072827;28;20244;-53
2024/04/04 10:54:16;;;;;;;0.43;0.43;;;;;;;;;;5074152;28;20228;-54
2024/04/04 10:56:45;;;;;;;0.52;0.50;;;;;;;;;;5079738;28;20638;-52
2024/04/04 10:59:15;;;;;;;0.70;0.70;;;;;;;;;;5071135;28;20236;-52
2024/04/04 11:01:43;;;;;;;0.95;0.73;;;;;;;;;;5085678;28;20216;-50
2024/04/04 11:04:12;;;;;;;1.23;0.95;;;;;;;;;;5073068;28;20200;-55
2024/04/04 11:06:40;;;;;;;0.55;0.55;;;;;;;;;;5077018;28;20208;-53
2024/04/04 11:09:11;;;;;;;0.68;0.55;;;;;;;;;;5074939;28;20225;-51
2024/04/04 11:11:39;;;;;;;0.40;0.40;;;;;;;;;;5075587;28;20236;-52
2024/04/04 11:14:06;;;;;;;0.70;0.70;;;;;;;;;;5080564;28;20204;-52
2024/04/04 11:16:34;;;;;;;0.45;0.45;;;;;;;;;;5078845;28;20295;-55
2024/04/04 11:19:02;;;;;;;0.50;0.50;;;;;;;;;;5080253;28;20649;-51
2024/04/04 11:21:28;;;;;;;0.70;0.70;;;;;;;;;;5077014;28;20267;-55
2024/04/04 11:23:56;;;;;;;0.63;0.63;;;;;;;;;;5074151;28;20201;-54
2024/04/04 11:26:24;;;;;;;0.63;0.43;;;;;;;;;;5072378;28;20201;-53
2024/04/04 11:28:51;;;;;;;0.40;0.40;;;;;;;;;;5077842;28;20667;-53
2024/04/04 11:31:18;;;;;;;0.50;0.50;;;;;;;;;;5081819;28;20278;-52
2024/04/04 11:33:47;;;;;;;0.35;0.35;;;;;;;;;;5082194;28;20204;-54
2024/04/04 11:36:13;;;;;;;1.35;0.52;;;;;;;;;;5063912;28;20565;-50
2024/04/04 11:38:41;;;;;;;0.52;0.52;;;;;;;;;;5082744;28;20208;-51
2024/04/04 11:41:07;;;;;;;0.50;0.50;;;;;;;;;;5075629;28;20688;-50
2024/04/04 11:43:35;;;;;;;0.43;0.43;;;;;;;;;;5075682;28;20193;-50
2024/04/04 11:46:02;;;;;;;0.40;0.40;;;;;;;;;;5076303;28;20200;-51
2024/04/04 11:48:30;;;;;;;0.40;0.40;;;;;;;;;;5071797;28;20677;-55
2024/04/04 11:50:58;;;;;;;6.75;0.50;;;;;;;;;;5083767;28;20339;-52
2024/04/04 11:53:25;;;;;;;0.50;0.50;;;;;;;;;;5077220;28;20224;-50
2024/04/04 11:55:54;;;;;;;0.50;0.50;;;;;;;;;;5075413;28;20671;-53
2024/04/04 11:58:26;;;;;;;0.57;0.57;;;;;;;;;;5074469;28;20663;-52
2024/04/04 12:00:52;;;;;;;0.50;0.30;;;;;;;;;;5089323;28;20457;-50
2024/04/04 12:03:20;;;;;;;0.30;0.30;;;;;;;;;;5080719;28;20225;-53
2024/04/04 12:05:47;;;;;;;0.60;0.60;;;;;;;;;;5073865;28;20197;-50
2024/04/04 12:08:16;;;;;;;0.47;0.47;;;;;;;;;;5084396;28;20208;-54
2024/04/04 12:10:43;;;;;;;0.50;0.50;;;;;;;;;;5086550;28;20221;-53
2024/04/04 12:13:11;;;;;;;0.40;0.40;;;;;;;;;;5075537;28;20221;-55
2024/04/04 12:15:37;;;;;;;0.60;0.60;;;;;;;;;;5094187;28;20204;-52
2024/04/04 12:20:51;;;;;;;0.20;0.20;;;;;;;;;;5074273;28;20311;-53
2024/04/04 12:23:19;;;;;;;0.65;0.50;;;;;;;;;;5074231;28;20197;-53
2024/04/04 12:25:47;;;;;;;0.80;0.70;;;;;;;;;;5081659;28;20197;-53
2024/04/04 12:28:16;;;;;;;0.43;0.43;;;;;;;;;;5089377;28;20201;-53
2024/04/04 12:30:42;;;;;;;0.50;0.50;;;;;;;;;;5079441;28;20221;-53
2024/04/04 12:33:10;;;;;;;0.50;0.50;;;;;;;;;;5091883;28;20789;-51
2024/04/04 12:35:36;;;;;;;0.47;0.47;;;;;;;;;;5079666;28;20292;-54
2024/04/04 12:38:05;;;;;;;0.95;0.60;;;;;;;;;;5083672;28;20204;-52
2024/04/04 12:40:32;;;;;;;0.73;0.60;;;;;;;;;;5079275;28;20233;-56
2024/04/04 12:43:00;;;;;;;0.60;0.60;;;;;;;;;;5072913;28;20200;-55
2024/04/04 12:45:26;;;;;;;0.50;0.50;;;;;;;;;;5077403;28;20211;-53
2024/04/04 12:47:54;;;;;;;1.10;0.68;;;;;;;;;;5077446;28;20200;-54
2024/04/04 12:50:23;;;;;;;0.60;0.60;;;;;;;;;;5092117;28;20212;-53
2024/04/04 12:52:51;;;;;;;0.40;0.40;;;;;;;;;;5084519;28;20225;-57
2024/04/04 12:55:17;;;;;;;0.55;0.30;;;;;;;;;;5073384;28;20766;-53
2024/04/04 12:57:46;;;;;;;0.88;0.50;;;;;;;;;;5086532;28;20283;-54
2024/04/04 13:00:14;;;;;;;0.50;0.50;;;;;;;;;;5073025;28;20223;-51
2024/04/04 13:02:41;;;;;;;2.90;1.50;;;;;;;;;;5078525;28;20242;-55
2024/04/04 13:05:08;;;;;;;0.40;0.38;;;;;;;;;;5083214;28;20215;-55
2024/04/04 13:07:35;;;;;;;0.63;0.60;;;;;;;;;;5079087;28;20228;-53
2024/04/04 13:10:02;;;;;;;0.47;0.40;;;;;;;;;;5075801;28;20204;-53
2024/04/04 13:12:30;;;;;;;0.32;0.32;;;;;;;;;;5079556;28;20235;-52
2024/04/04 13:14:57;;;;;;;0.82;0.73;;;;;;;;;;5072499;28;20562;-50
2024/04/04 13:17:25;;;;;;;0.50;0.50;;;;;;;;;;5072284;28;20215;-52
2024/04/04 13:19:52;;;;;;;0.35;0.35;;;;;;;;;;5072764;28;20209;-50
2024/04/04 13:22:19;;;;;;;1.02;0.73;;;;;;;;;;5076101;28;20216;-53
2024/04/04 13:24:46;;;;;;;0.50;0.50;;;;;;;;;;5081883;28;20220;-52
2024/04/04 13:27:13;;;;;;;0.40;0.40;;;;;;;;;;5073058;28;20201;-51
2024/04/04 13:29:40;;;;;;;0.47;0.43;;;;;;;;;;5072070;28;20204;-51
2024/04/04 13:32:09;;;;;;;0.82;0.32;;;;;;;;;;5072905;28;20232;-49
2024/04/04 13:34:35;;;;;;;0.30;0.30;;;;;;;;;;5073191;28;20211;-50
2024/04/04 13:37:03;;;;;;;1.27;0.50;;;;;;;;;;5090712;28;20202;-52
2024/04/04 13:39:29;;;;;;;1.75;0.60;;;;;;;;;;5071966;28;20204;-52
2024/04/04 13:41:57;;;;;;;0.65;0.60;;;;;;;;;;5072014;28;20221;-52
2024/04/04 13:44:23;;;;;;;0.45;0.45;;;;;;;;;;5073273;28;20742;-52
2024/04/04 13:46:50;;;;;;;0.40;0.40;;;;;;;;;;5071870;28;20213;-56
2024/04/04 13:49:18;;;;;;;3.33;1.65;;;;;;;;;;5071712;28;20220;-55
2024/04/04 13:51:46;;;;;;;0.50;0.50;;;;;;;;;;5088130;28;20227;-53
2024/04/04 13:54:12;;;;;;;1.75;0.80;;;;;;;;;;5075664;28;20239;-52
2024/04/04 13:56:40;;;;;;;0.50;0.50;;;;;;;;;;5077769;28;20215;-52
2024/04/04 13:59:06;;;;;;;0.17;0.15;;;;;;;;;;5080424;28;20215;-52
2024/04/04 14:01:35;;;;;;;0.40;0.40;;;;;;;;;;5071546;28;20224;-50
2024/04/04 14:04:02;;;;;;;0.65;0.50;;;;;;;;;;5054298;28;20284;-50
2024/04/04 14:06:31;;;;;;;0.40;0.40;;;;;;;;;;5062634;28;20197;-55
2024/04/04 14:08:58;;;;;;;2.72;1.30;;;;;;;;;;5082173;28;20287;-52
2024/04/04 14:11:26;;;;;;;1.67;1.58;;;;;;;;;;5075119;28;20228;-51
2024/04/04 14:13:53;;;;;;;0.65;0.65;;;;;;;;;;5074674;28;20227;-50
2024/04/04 14:16:21;;;;;;;0.50;0.50;;;;;;;;;;5071585;28;20247;-54
2024/04/04 14:18:48;;;;;;;0.50;0.50;;;;;;;;;;5088141;28;20204;-53
2024/04/04 14:21:16;;;;;;;0.55;0.55;;;;;;;;;;5072214;28;20233;-53
2024/04/04 14:23:43;;;;;;;0.50;0.50;;;;;;;;;;5078450;28;20208;-51
2024/04/04 14:26:12;;;;;;;2.00;0.63;;;;;;;;;;5071753;28;20255;-51
2024/04/04 14:28:38;;;;;;;0.73;0.70;;;;;;;;;;5071621;28;20200;-52
2024/04/04 14:31:06;;;;;;;0.40;0.40;;;;;;;;;;5073518;28;20232;-51
2024/04/04 14:33:32;;;;;;;0.40;0.40;;;;;;;;;;5076820;28;20229;-51
2024/04/04 14:36:00;;;;;;;0.40;0.40;;;;;;;;;;5071241;28;20292;-55
2024/04/04 14:38:26;;;;;;;3.20;1.02;;;;;;;;;;5071298;28;20205;-52
2024/04/04 14:40:55;;;;;;;0.63;0.40;;;;;;;;;;5054635;28;20303;-51
2024/04/04 14:43:21;;;;;;;0.32;0.32;;;;;;;;;;5068337;28;20196;-51
2024/04/04 14:45:53;;;;;;;4.75;1.80;;;;;;;;;;5075798;28;20215;-50
2024/04/04 14:48:20;;;;;;;0.28;0.28;;;;;;;;;;5071018;28;20197;-50
2024/04/04 14:50:56;;;;;;;4.82;1.08;;;;;;;;;;5071135;28;20224;-49